createdAt,value
2019-03-24T00:01:20.871Z,63.62
2019-03-24T00:03:54.999Z,63.68
2019-03-24T00:06:37.132Z,64.10
2019-03-24T00:09:11.292Z,63.98
2019-03-24T00:11:45.321Z,64.02
2019-03-24T00:14:19.278Z,64.24
2019-03-24T00:16:53.204Z,64.29
2019-03-24T00:19:28.599Z,64.09
2019-03-24T00:22:02.615Z,64.18
2019-03-24T00:24:36.465Z,64.27
2019-03-24T00:27:10.414Z,64.23
2019-03-24T00:29:44.286Z,64.55
2019-03-24T00:32:18.095Z,64.69
2019-03-24T00:34:52.015Z,64.84
2019-03-24T00:37:25.960Z,65.14
2019-03-24T00:39:59.810Z,65.00
2019-03-24T00:42:33.583Z,64.93
2019-03-24T00:45:08.277Z,65.04
2019-03-24T00:47:42.090Z,64.89
2019-03-24T00:50:16.031Z,65.46
2019-03-24T00:52:49.953Z,64.72
2019-03-24T00:55:23.821Z,64.99
2019-03-24T00:57:58.062Z,64.92
2019-03-24T01:00:51.506Z,64.86
2019-03-24T01:03:25.644Z,65.12
2019-03-24T01:06:01.843Z,65.31
2019-03-24T01:08:37.774Z,65.25
2019-03-24T01:11:15.562Z,65.47
2019-03-24T01:13:49.948Z,65.28
2019-03-24T01:16:24.080Z,65.42
2019-03-24T01:18:59.186Z,65.33
2019-03-24T01:21:35.033Z,65.47
2019-03-24T01:24:16.856Z,66.04
2019-03-24T01:26:51.957Z,65.96
2019-03-24T01:29:26.049Z,65.87
2019-03-24T01:32:00.948Z,65.98
2019-03-24T01:34:34.846Z,65.91
2019-03-24T01:37:08.713Z,66.24
2019-03-24T01:39:42.720Z,66.19
2019-03-24T01:42:16.682Z,65.84
2019-03-24T01:44:50.676Z,66.30
2019-03-24T01:47:28.111Z,66.21
2019-03-24T01:50:07.178Z,66.40
2019-03-24T01:52:42.168Z,66.32
2019-03-24T01:55:16.138Z,66.76
2019-03-24T01:57:50.067Z,66.67
2019-03-24T02:00:24.729Z,67.04
2019-03-24T02:02:58.757Z,67.48
2019-03-24T02:05:32.743Z,67.33
2019-03-24T02:08:06.742Z,67.44
2019-03-24T02:10:40.632Z,67.61
2019-03-24T02:13:14.553Z,67.31
2019-03-24T02:15:49.012Z,67.33
2019-03-24T02:18:24.054Z,67.95
2019-03-24T02:20:58.027Z,67.77
2019-03-24T02:23:33.128Z,67.82
2019-03-24T02:26:07.040Z,67.89
2019-03-24T02:28:40.935Z,67.93
2019-03-24T02:31:14.956Z,68.13
2019-03-24T02:33:49.054Z,67.83
2019-03-24T02:36:23.563Z,67.63
2019-03-24T02:38:57.533Z,68.09
2019-03-24T02:41:31.513Z,68.31
2019-03-24T02:44:05.396Z,68.64
2019-03-24T02:46:39.565Z,68.88
2019-03-24T02:49:13.477Z,68.92
2019-03-24T02:51:47.566Z,68.97
2019-03-24T02:54:21.497Z,68.97
2019-03-24T02:56:55.533Z,69.30
2019-03-24T02:59:30.678Z,69.01
2019-03-24T03:02:04.726Z,68.91
2019-03-24T03:04:38.761Z,68.92
2019-03-24T03:07:14.786Z,69.05
2019-03-24T03:09:48.789Z,69.16
2019-03-24T03:12:22.765Z,69.23
2019-03-24T03:14:57.782Z,69.29
2019-03-24T03:17:31.828Z,69.72
2019-03-24T03:20:06.214Z,69.74
2019-03-24T03:22:40.130Z,69.84
2019-03-24T03:25:14.413Z,70.00
2019-03-24T03:27:48.370Z,69.86
2019-03-24T03:30:22.347Z,69.76
2019-03-24T03:32:56.342Z,69.52
2019-03-24T03:35:30.310Z,69.41
2019-03-24T03:38:04.374Z,69.43
2019-03-24T03:40:38.373Z,69.70
2019-03-24T03:43:12.779Z,69.93
2019-03-24T03:45:48.602Z,69.71
2019-03-24T03:48:24.306Z,69.73
2019-03-24T03:50:58.212Z,69.50
2019-03-24T03:53:32.159Z,69.51
2019-03-24T03:56:07.687Z,69.54
2019-03-24T03:58:42.021Z,69.56
2019-03-24T04:01:17.479Z,69.58
2019-03-24T04:03:51.518Z,69.66
2019-03-24T04:06:25.648Z,69.71
2019-03-24T04:08:59.609Z,69.65
2019-03-24T04:11:33.582Z,69.82
2019-03-24T04:14:07.505Z,69.49
2019-03-24T04:16:42.445Z,69.20
2019-03-24T04:19:16.385Z,68.85
2019-03-24T04:21:50.318Z,68.53
2019-03-24T04:24:24.233Z,67.85
2019-03-24T04:26:58.137Z,67.28
2019-03-24T04:29:32.179Z,66.48
2019-03-24T04:32:06.095Z,66.31
2019-03-24T04:34:40.083Z,66.58
2019-03-24T04:37:14.110Z,66.70
2019-03-24T04:39:48.074Z,67.00
2019-03-24T04:42:22.058Z,67.16
2019-03-24T04:44:56.165Z,67.27
2019-03-24T04:47:31.112Z,66.99
2019-03-24T04:50:05.523Z,67.09
2019-03-24T04:52:39.546Z,67.39
2019-03-24T04:55:13.548Z,67.31
2019-03-24T04:57:47.537Z,67.18
2019-03-24T05:00:35.987Z,67.22
2019-03-24T05:03:11.871Z,67.05
2019-03-24T05:05:45.864Z,66.97
2019-03-24T05:08:19.831Z,67.41
2019-03-24T05:10:54.216Z,67.47
2019-03-24T05:13:28.197Z,67.04
2019-03-24T05:16:02.304Z,67.18
2019-03-24T05:18:43.322Z,67.25
2019-03-24T05:21:17.428Z,67.68
2019-03-24T05:23:51.610Z,68.00
2019-03-24T05:26:27.707Z,67.95
2019-03-24T05:29:03.218Z,67.83
2019-03-24T05:31:38.417Z,67.82
2019-03-24T05:34:20.179Z,67.98
2019-03-24T05:36:55.687Z,67.96
2019-03-24T05:39:29.546Z,68.17
2019-03-24T05:42:03.514Z,68.70
2019-03-24T05:44:37.741Z,68.44
2019-03-24T05:47:13.540Z,68.85
2019-03-24T05:49:48.212Z,68.26
2019-03-24T05:52:22.426Z,68.01
2019-03-24T05:55:08.260Z,67.90
2019-03-24T05:57:43.033Z,68.27
2019-03-24T06:00:16.953Z,66.68
2019-03-24T06:02:51.991Z,66.67
2019-03-24T06:05:30.623Z,65.67
2019-03-24T06:08:05.131Z,65.32
2019-03-24T06:10:39.793Z,64.88
2019-03-24T06:13:14.813Z,63.88
2019-03-24T06:15:48.911Z,63.22
2019-03-24T06:18:23.426Z,62.21
2019-03-24T06:20:58.079Z,61.84
2019-03-24T06:23:32.031Z,61.63
2019-03-24T06:26:05.920Z,61.98
2019-03-24T06:28:39.926Z,60.95
2019-03-24T06:31:13.932Z,60.87
2019-03-24T06:33:49.440Z,60.60
2019-03-24T06:36:23.954Z,60.08
2019-03-24T06:38:58.039Z,59.36
2019-03-24T06:41:33.097Z,58.63
2019-03-24T06:44:07.123Z,58.13
2019-03-24T06:46:41.694Z,57.75
2019-03-24T06:49:17.394Z,57.26
2019-03-24T06:51:51.414Z,56.51
2019-03-24T06:54:26.483Z,55.77
2019-03-24T06:57:06.421Z,55.05
2019-03-24T06:59:42.713Z,54.71
2019-03-24T07:02:16.672Z,53.97
2019-03-24T07:04:50.678Z,53.01
2019-03-24T07:07:24.553Z,52.93
2019-03-24T07:09:58.902Z,52.15
2019-03-24T07:12:32.815Z,51.23
2019-03-24T07:15:08.261Z,51.80
2019-03-24T07:17:43.279Z,50.61
2019-03-24T07:20:17.340Z,49.63
2019-03-24T07:22:51.291Z,48.66
2019-03-24T07:25:25.198Z,47.59
2019-03-24T07:27:59.062Z,47.43
2019-03-24T07:30:33.070Z,46.69
2019-03-24T07:33:07.094Z,47.08
2019-03-24T07:35:40.952Z,46.10
2019-03-24T07:38:15.018Z,44.79
2019-03-24T07:41:04.474Z,44.32
2019-03-24T07:43:40.347Z,43.66
2019-03-24T07:46:34.584Z,43.73
2019-03-24T07:49:08.646Z,43.72
2019-03-24T07:51:43.393Z,43.37
2019-03-24T07:54:17.215Z,43.05
2019-03-24T07:56:51.177Z,41.46
2019-03-24T07:59:25.035Z,40.49
2019-03-24T08:01:58.879Z,38.56
2019-03-24T08:04:32.900Z,40.72
2019-03-24T08:07:06.986Z,40.21
2019-03-24T08:09:40.935Z,36.31
2019-03-24T08:12:14.848Z,38.22
2019-03-24T08:14:48.662Z,41.10
2019-03-24T08:17:23.121Z,37.45
2019-03-24T08:19:56.994Z,37.70
2019-03-24T08:22:30.911Z,38.37
2019-03-24T08:25:04.843Z,38.25
2019-03-24T08:27:38.812Z,36.99
2019-03-24T08:30:12.829Z,36.93
2019-03-24T08:32:46.697Z,37.77
2019-03-24T08:35:20.537Z,40.96
2019-03-24T08:37:54.424Z,39.41
2019-03-24T08:40:28.310Z,35.73
2019-03-24T08:43:02.211Z,35.22
2019-03-24T08:45:36.351Z,35.88
2019-03-24T08:48:10.653Z,36.16
2019-03-24T08:50:44.584Z,36.29
2019-03-24T08:53:18.488Z,37.16
2019-03-24T08:55:52.367Z,35.39
2019-03-24T08:58:28.680Z,34.70
2019-03-24T09:01:02.642Z,34.68
2019-03-24T09:03:36.608Z,34.85
2019-03-24T09:06:10.563Z,35.52
2019-03-24T09:08:44.530Z,36.00
2019-03-24T09:11:18.500Z,34.88
2019-03-24T09:13:52.428Z,36.31
2019-03-24T09:16:26.803Z,36.03
2019-03-24T09:19:01.192Z,35.79
2019-03-24T09:21:34.996Z,36.33
2019-03-24T09:24:09.008Z,36.45
2019-03-24T09:26:42.900Z,35.86
2019-03-24T09:29:16.964Z,36.66
2019-03-24T09:31:51.676Z,35.43
2019-03-24T09:34:25.622Z,35.39
2019-03-24T09:36:59.483Z,35.95
2019-03-24T09:39:33.454Z,34.79
2019-03-24T09:42:07.400Z,34.57
2019-03-24T09:44:41.347Z,33.49
2019-03-24T09:47:15.244Z,32.69
2019-03-24T09:49:49.273Z,32.99
2019-03-24T09:52:23.263Z,32.51
2019-03-24T09:54:57.605Z,33.86
2019-03-24T09:57:31.548Z,33.67
2019-03-24T10:00:06.119Z,32.83
2019-03-24T10:02:41.029Z,33.75
2019-03-24T10:05:16.022Z,32.97
2019-03-24T10:07:49.965Z,34.01
2019-03-24T10:10:24.439Z,33.78
2019-03-24T10:12:59.453Z,33.27
2019-03-24T10:15:33.642Z,31.25
2019-03-24T10:18:07.665Z,30.19
2019-03-24T10:20:41.616Z,29.84
2019-03-24T10:23:15.508Z,30.52
2019-03-24T10:25:49.545Z,30.03
2019-03-24T10:28:23.438Z,31.46
2019-03-24T10:30:57.432Z,31.32
2019-03-24T10:33:31.799Z,31.21
2019-03-24T10:36:06.041Z,30.50
2019-03-24T10:38:39.969Z,31.74
2019-03-24T10:41:22.245Z,31.83
2019-03-24T10:43:52.756Z,31.94
2019-03-24T10:46:29.713Z,31.64
2019-03-24T10:49:06.335Z,30.86
2019-03-24T10:51:40.321Z,34.00
2019-03-24T10:54:14.254Z,34.13
2019-03-24T10:56:48.212Z,33.69
2019-03-24T10:59:50.050Z,34.21
2019-03-24T11:02:48.123Z,34.13
2019-03-24T11:05:25.325Z,33.93
2019-03-24T11:08:16.085Z,33.24
2019-03-24T11:10:59.980Z,33.32
2019-03-24T11:13:28.535Z,32.92
2019-03-24T11:16:03.425Z,30.61
2019-03-24T11:18:37.340Z,31.41
2019-03-24T11:21:11.195Z,32.82
2019-03-24T11:23:46.865Z,33.94
2019-03-24T11:26:21.233Z,33.21
2019-03-24T11:28:55.173Z,33.23
2019-03-24T11:31:41.066Z,32.80
2019-03-24T11:34:15.483Z,32.21
2019-03-24T11:36:50.358Z,32.09
2019-03-24T11:39:24.251Z,31.28
2019-03-24T11:42:06.088Z,31.80
2019-03-24T11:44:42.239Z,31.74
2019-03-24T11:47:26.316Z,31.37
2019-03-24T11:49:52.943Z,31.49
2019-03-24T11:52:33.309Z,31.49
2019-03-24T11:55:12.065Z,30.54
2019-03-24T11:57:48.786Z,30.69
2019-03-24T12:00:34.567Z,31.77
2019-03-24T12:03:11.409Z,30.65
2019-03-24T12:05:45.309Z,30.74
2019-03-24T12:08:19.189Z,29.66
2019-03-24T12:10:53.322Z,30.37
2019-03-24T12:13:27.263Z,31.04
2019-03-24T12:16:01.078Z,35.05
2019-03-24T12:18:39.454Z,30.30
2019-03-24T12:21:13.604Z,29.33
2019-03-24T12:23:47.368Z,29.06
2019-03-24T12:26:21.823Z,28.61
2019-03-24T12:28:56.062Z,29.30
2019-03-24T12:31:30.079Z,29.27
2019-03-24T12:34:03.955Z,28.99
2019-03-24T12:36:37.835Z,30.19
2019-03-24T12:39:11.806Z,29.32
2019-03-24T12:41:45.782Z,28.80
2019-03-24T12:44:19.714Z,27.31
2019-03-24T12:46:53.540Z,29.58
2019-03-24T12:49:27.455Z,29.94
2019-03-24T12:52:01.828Z,29.49
2019-03-24T12:54:35.824Z,29.78
2019-03-24T12:57:10.046Z,30.98
2019-03-24T12:59:43.947Z,29.93
2019-03-24T13:02:19.644Z,30.26
2019-03-24T13:04:53.596Z,30.56
2019-03-24T13:07:27.593Z,29.41
2019-03-24T13:10:01.544Z,29.17
2019-03-24T13:12:37.772Z,29.53
2019-03-24T13:15:11.678Z,28.81
2019-03-24T13:17:45.617Z,30.04
2019-03-24T13:20:31.872Z,29.79
2019-03-24T13:22:55.260Z,29.82
2019-03-24T13:25:29.320Z,28.82
2019-03-24T13:28:03.481Z,30.10
2019-03-24T13:30:37.315Z,31.28
2019-03-24T13:33:13.601Z,31.23
2019-03-24T13:35:49.092Z,31.48
2019-03-24T13:38:23.150Z,30.79
2019-03-24T13:40:57.043Z,30.42
2019-03-24T13:43:33.530Z,29.69
2019-03-24T13:46:09.145Z,30.42
2019-03-24T13:48:45.208Z,31.11
2019-03-24T13:51:19.283Z,30.37
2019-03-24T13:53:53.239Z,30.14
2019-03-24T13:56:27.456Z,28.97
2019-03-24T13:59:07.991Z,28.99
2019-03-24T14:01:42.259Z,29.81
2019-03-24T14:04:16.181Z,29.39
2019-03-24T14:06:50.003Z,30.16
2019-03-24T14:09:23.855Z,29.66
2019-03-24T14:11:57.715Z,29.84
2019-03-24T14:14:31.618Z,29.18
2019-03-24T14:17:05.507Z,29.83
2019-03-24T14:19:39.475Z,29.65
2019-03-24T14:22:13.407Z,29.56
2019-03-24T14:24:47.313Z,28.67
2019-03-24T14:27:21.195Z,26.82
2019-03-24T14:29:55.151Z,29.54
2019-03-24T14:32:30.112Z,28.12
2019-03-24T14:35:03.965Z,28.66
2019-03-24T14:37:38.005Z,25.11
2019-03-24T14:40:13.479Z,27.70
2019-03-24T14:42:47.330Z,28.29
2019-03-24T14:45:22.345Z,27.18
2019-03-24T14:47:56.593Z,27.05
2019-03-24T14:50:31.826Z,27.86
2019-03-24T14:53:05.740Z,28.56
2019-03-24T14:55:39.738Z,28.30
2019-03-24T14:58:15.326Z,28.63
2019-03-24T15:00:49.238Z,29.49
2019-03-24T15:03:23.166Z,30.77
2019-03-24T15:05:57.316Z,30.08
2019-03-24T15:08:31.235Z,30.15
2019-03-24T15:11:05.114Z,30.22
2019-03-24T15:13:39.431Z,29.42
2019-03-24T15:16:13.379Z,28.88
2019-03-24T15:18:47.292Z,29.68
2019-03-24T15:21:22.253Z,28.88
2019-03-24T15:23:56.376Z,28.08
2019-03-24T15:26:30.350Z,28.65
2019-03-24T15:29:04.259Z,29.31
2019-03-24T15:31:38.108Z,29.00
2019-03-24T15:34:14.670Z,30.27
2019-03-24T15:36:48.678Z,30.24
2019-03-24T15:39:22.678Z,30.41
2019-03-24T15:41:56.623Z,29.85
2019-03-24T15:44:30.919Z,28.36
2019-03-24T15:47:04.865Z,27.75
2019-03-24T15:49:43.485Z,27.43
2019-03-24T15:52:17.490Z,28.28
2019-03-24T15:54:51.453Z,28.39
2019-03-24T15:57:25.396Z,28.43
2019-03-24T15:59:59.323Z,28.49
2019-03-24T16:02:33.460Z,28.20
2019-03-24T16:05:07.632Z,28.99
2019-03-24T16:07:42.577Z,29.17
2019-03-24T16:10:17.758Z,28.87
2019-03-24T16:12:51.641Z,29.44
2019-03-24T16:15:25.583Z,29.78
2019-03-24T16:17:59.558Z,29.92
2019-03-24T16:20:33.893Z,32.39
2019-03-24T16:23:09.370Z,30.16
2019-03-24T16:25:43.253Z,29.55
2019-03-24T16:28:17.317Z,29.58
2019-03-24T16:30:51.237Z,29.88
2019-03-24T16:33:25.713Z,31.73
2019-03-24T16:36:06.161Z,29.75
2019-03-24T16:38:48.789Z,30.72
2019-03-24T16:41:31.648Z,30.04
2019-03-24T16:44:14.914Z,31.49
2019-03-24T16:46:52.384Z,30.72
2019-03-24T16:49:30.221Z,31.17
2019-03-24T16:52:42.016Z,30.81
2019-03-24T16:56:01.681Z,30.63
2019-03-24T16:59:00.720Z,30.29
2019-03-24T17:02:03.051Z,30.80
2019-03-24T17:05:08.310Z,30.63
2019-03-24T17:08:04.117Z,31.81
2019-03-24T17:10:50.719Z,33.80
2019-03-24T17:13:33.542Z,32.36
2019-03-24T17:16:20.208Z,32.12
2019-03-24T17:19:02.225Z,31.73
2019-03-24T17:21:49.472Z,32.13
2019-03-24T17:24:25.689Z,32.97
2019-03-24T17:27:02.426Z,32.15
2019-03-24T17:29:43.181Z,32.26
2019-03-24T17:32:18.832Z,34.02
2019-03-24T17:34:52.657Z,34.53
2019-03-24T17:37:29.996Z,35.01
2019-03-24T17:40:07.815Z,35.86
2019-03-24T17:42:44.569Z,35.71
2019-03-24T17:45:19.424Z,35.80
2019-03-24T17:47:53.418Z,36.62
2019-03-24T17:50:27.287Z,36.54
2019-03-24T17:53:01.283Z,36.66
2019-03-24T17:55:43.195Z,38.38
2019-03-24T17:58:17.363Z,38.94
2019-03-24T18:00:54.289Z,39.99
2019-03-24T18:03:28.235Z,40.23
2019-03-24T18:06:03.064Z,41.00
2019-03-24T18:08:36.912Z,43.86
2019-03-24T18:11:10.946Z,45.79
2019-03-24T18:13:44.749Z,42.72
2019-03-24T18:16:18.601Z,41.03
2019-03-24T18:18:52.535Z,41.58
2019-03-24T18:21:26.480Z,42.42
2019-03-24T18:24:00.517Z,42.20
2019-03-24T18:26:34.344Z,43.44
2019-03-24T18:29:08.214Z,42.68
2019-03-24T18:31:42.105Z,43.27
2019-03-24T18:34:16.074Z,43.85
2019-03-24T18:36:50.019Z,42.76
2019-03-24T18:39:23.912Z,42.84
2019-03-24T18:41:57.871Z,43.54
2019-03-24T18:44:34.448Z,43.01
2019-03-24T18:47:08.474Z,43.86
2019-03-24T18:49:42.398Z,42.99
2019-03-24T18:52:22.591Z,41.90
2019-03-24T18:54:53.156Z,41.66
2019-03-24T18:57:27.152Z,41.87
2019-03-24T19:00:01.027Z,39.92
2019-03-24T19:02:35.008Z,40.23
2019-03-24T19:05:09.525Z,40.77
2019-03-24T19:07:44.575Z,40.97
2019-03-24T19:10:18.744Z,39.98
2019-03-24T19:12:56.909Z,39.80
2019-03-24T19:15:30.817Z,38.71
2019-03-24T19:18:05.747Z,38.97
2019-03-24T19:20:39.746Z,38.77
2019-03-24T19:23:13.682Z,39.04
2019-03-24T19:25:49.344Z,38.94
2019-03-24T19:28:23.472Z,38.31
2019-03-24T19:30:57.452Z,38.61
2019-03-24T19:33:31.470Z,39.04
2019-03-24T19:36:05.459Z,38.61
2019-03-24T19:38:39.510Z,38.84
2019-03-24T19:41:13.358Z,40.28
2019-03-24T19:43:47.333Z,38.50
2019-03-24T19:46:21.253Z,38.41
2019-03-24T19:48:55.218Z,38.40
2019-03-24T19:51:31.273Z,38.76
2019-03-24T19:54:05.119Z,39.03
2019-03-24T19:56:40.985Z,39.03
2019-03-24T19:59:14.999Z,39.71
2019-03-24T20:01:49.970Z,39.21
2019-03-24T20:04:26.205Z,39.66
2019-03-24T20:07:00.131Z,40.08
2019-03-24T20:09:34.683Z,39.80
2019-03-24T20:12:08.719Z,39.82
2019-03-24T20:14:43.112Z,40.02
2019-03-24T20:17:17.493Z,40.34
2019-03-24T20:19:51.891Z,40.57
2019-03-24T20:22:28.094Z,40.50
2019-03-24T20:25:02.228Z,40.81
2019-03-24T20:27:47.347Z,40.56
2019-03-24T20:30:18.021Z,41.19
2019-03-24T20:32:52.309Z,41.80
2019-03-24T20:35:26.331Z,41.80
2019-03-24T20:38:00.504Z,41.54
2019-03-24T20:40:34.868Z,41.18
2019-03-24T20:43:08.832Z,41.53
2019-03-24T20:45:42.780Z,41.60
2019-03-24T20:48:16.707Z,41.85
2019-03-24T20:50:50.540Z,42.31
2019-03-24T20:56:18.110Z,41.64
2019-03-24T20:58:52.291Z,42.10
2019-03-24T21:01:30.344Z,42.10
2019-03-24T21:04:04.355Z,42.18
2019-03-24T21:06:38.190Z,42.13
2019-03-24T21:09:12.202Z,42.39
2019-03-24T21:11:46.259Z,42.73
2019-03-24T21:14:22.661Z,42.73
2019-03-24T21:16:56.503Z,42.91
2019-03-24T21:19:30.413Z,43.39
2019-03-24T21:22:04.257Z,43.65
2019-03-24T21:24:38.160Z,43.91
2019-03-24T21:27:13.519Z,43.95
2019-03-24T21:29:47.554Z,44.12
2019-03-24T21:32:23.532Z,44.73
2019-03-24T21:34:57.441Z,45.12
2019-03-24T21:37:31.287Z,45.28
2019-03-24T21:40:06.352Z,45.42
2019-03-24T21:42:41.848Z,45.89
2019-03-24T21:45:19.354Z,46.21
2019-03-24T21:47:53.338Z,46.27
2019-03-24T21:50:27.228Z,45.75
2019-03-24T21:53:01.188Z,45.94
2019-03-24T21:55:35.099Z,46.93
2019-03-24T21:58:08.947Z,47.27
2019-03-24T22:00:42.896Z,47.01
2019-03-24T22:03:16.782Z,47.35
2019-03-24T22:05:50.669Z,47.80
2019-03-24T22:08:26.221Z,48.65
2019-03-24T22:11:00.037Z,48.66
2019-03-24T22:13:40.858Z,49.17
2019-03-24T22:16:15.138Z,49.53
2019-03-24T22:18:48.945Z,50.28
2019-03-24T22:21:22.804Z,50.04
2019-03-24T22:23:56.938Z,50.21
2019-03-24T22:26:31.210Z,50.25
2019-03-24T22:29:05.061Z,50.81
2019-03-24T22:31:39.171Z,51.30
2019-03-24T22:34:14.113Z,51.30
2019-03-24T22:36:49.541Z,51.74
2019-03-24T22:39:23.455Z,51.98
2019-03-24T22:41:57.241Z,52.93
2019-03-24T22:44:31.042Z,53.02
2019-03-24T22:47:04.847Z,53.44
2019-03-24T22:49:38.693Z,53.65
2019-03-24T22:52:12.624Z,53.38
2019-03-24T22:54:46.453Z,53.32
2019-03-24T22:57:20.266Z,53.98
2019-03-24T22:59:54.139Z,52.89
2019-03-24T23:02:28.016Z,53.40
2019-03-24T23:05:01.975Z,53.31
2019-03-24T23:07:37.315Z,53.01
2019-03-24T23:10:12.337Z,52.93
2019-03-24T23:12:46.237Z,53.56
2019-03-24T23:15:20.210Z,54.04
2019-03-24T23:17:54.151Z,54.31
2019-03-24T23:20:29.225Z,54.75
2019-03-24T23:23:03.031Z,54.85
2019-03-24T23:25:37.061Z,55.52
2019-03-24T23:28:11.014Z,55.65
2019-03-24T23:30:44.957Z,56.46
2019-03-24T23:33:19.840Z,56.79
2019-03-24T23:35:53.745Z,56.21
2019-03-24T23:38:27.800Z,56.05
2019-03-24T23:41:02.775Z,55.57
2019-03-24T23:43:37.572Z,55.85
2019-03-24T23:46:11.533Z,55.52
2019-03-24T23:48:45.454Z,55.92
2019-03-24T23:51:19.939Z,56.10
2019-03-24T23:53:53.956Z,56.33
2019-03-24T23:56:27.795Z,56.56
2019-03-24T23:59:01.704Z,56.93
